Terminal Aerodrome Forecast
Issued by NWS Wichita, KS

Home | Current Version | Previous Version | Text Only | Print | Product List | Glossary Off
Versions: 1 2 3 4 5 6 7 8 9 10 11 12 13 14 15 16

000
FTUS43 KICT 260621 AAA
TAFICT
TAF AMD
KICT 260621Z 2606/2706 36014G19KT P6SM SCT060 BKN100
     FM261000 36010KT P6SM SCT100
     FM261500 36010KT P6SM SKC
     FM270000 20005KT P6SM SKC=

USA.gov is the U.S. government's official web portal to all federal, state and local government web resources and services.